createdAt,value
2019-02-26T00:01:16.361Z,7.47
2019-02-26T00:03:45.620Z,7.40
2019-02-26T00:06:16.144Z,7.80
2019-02-26T00:08:49.248Z,9.27
2019-02-26T00:11:18.137Z,9.20
2019-02-26T00:13:49.843Z,8.70
2019-02-26T00:16:20.552Z,8.03
2019-02-26T00:18:50.669Z,8.50
2019-02-26T00:21:22.217Z,8.47
2019-02-26T00:23:53.168Z,9.03
2019-02-26T00:26:23.066Z,9.27
2019-02-26T00:28:52.866Z,11.13
2019-02-26T00:31:24.310Z,9.17
2019-02-26T00:33:54.252Z,9.30
2019-02-26T00:36:27.024Z,10.63
2019-02-26T00:38:58.391Z,9.13
2019-02-26T00:41:29.067Z,9.33
2019-02-26T00:43:59.950Z,9.30
2019-02-26T00:46:32.515Z,10.87
2019-02-26T00:49:05.162Z,10.63
2019-02-26T00:51:33.866Z,10.07
2019-02-26T00:54:04.145Z,9.90
2019-02-26T00:56:36.375Z,10.23
2019-02-26T00:59:06.217Z,10.07
2019-02-26T01:01:35.984Z,10.90
2019-02-26T01:04:05.788Z,10.30
2019-02-26T01:06:35.559Z,10.53
2019-02-26T01:09:11.226Z,11.40
2019-02-26T01:11:40.307Z,11.13
2019-02-26T01:14:10.142Z,10.30
2019-02-26T01:16:41.584Z,10.47
2019-02-26T01:19:13.534Z,9.33
2019-02-26T01:21:44.262Z,11.03
2019-02-26T01:24:16.156Z,10.47
2019-02-26T01:26:46.004Z,11.53
2019-02-26T01:29:18.560Z,11.57
2019-02-26T01:31:47.255Z,10.77
2019-02-26T01:34:18.062Z,11.73
2019-02-26T01:36:49.567Z,11.47
2019-02-26T01:39:21.559Z,11.60
2019-02-26T01:41:53.326Z,13.00
2019-02-26T01:44:22.522Z,12.97
2019-02-26T01:46:53.422Z,11.77
2019-02-26T01:49:25.877Z,12.93
2019-02-26T01:51:55.450Z,6.50
2019-02-26T01:54:25.237Z,12.40
2019-02-26T01:56:55.009Z,13.03
2019-02-26T01:59:26.571Z,12.57
2019-02-26T02:01:56.389Z,13.47
2019-02-26T02:04:26.179Z,14.40
2019-02-26T02:06:58.879Z,13.77
2019-02-26T02:09:28.284Z,14.37
2019-02-26T02:11:59.925Z,14.60
2019-02-26T02:14:29.651Z,14.03
2019-02-26T02:17:01.675Z,14.77
2019-02-26T02:19:32.699Z,14.73
2019-02-26T02:22:02.492Z,16.13
2019-02-26T02:24:33.842Z,15.83
2019-02-26T02:27:03.645Z,16.10
2019-02-26T02:29:33.436Z,15.43
2019-02-26T02:32:04.984Z,15.53
2019-02-26T02:34:36.576Z,13.87
2019-02-26T02:37:06.179Z,17.47
2019-02-26T02:39:37.690Z,16.57
2019-02-26T02:42:08.366Z,12.73
2019-02-26T02:44:42.367Z,16.20
2019-02-26T02:47:12.165Z,17.17
2019-02-26T02:49:44.368Z,17.37
2019-02-26T02:52:14.591Z,19.27
2019-02-26T02:54:47.016Z,17.10
2019-02-26T02:57:15.852Z,18.37
2019-02-26T02:59:45.643Z,17.27
2019-02-26T03:02:17.623Z,17.80
2019-02-26T03:04:46.991Z,19.03
2019-02-26T03:07:18.056Z,18.27
2019-02-26T03:09:48.222Z,17.10
2019-02-26T03:12:17.990Z,20.40
2019-02-26T03:14:50.820Z,20.27
2019-02-26T03:17:20.596Z,18.53
2019-02-26T03:19:50.484Z,20.23
2019-02-26T03:22:21.570Z,21.07
2019-02-26T03:24:53.815Z,21.70
2019-02-26T03:27:23.142Z,23.33
2019-02-26T03:29:55.586Z,19.50
2019-02-26T03:32:24.425Z,23.17
2019-02-26T03:34:54.242Z,18.93
2019-02-26T03:37:25.830Z,21.40
2019-02-26T03:39:57.402Z,19.17
2019-02-26T03:42:27.026Z,21.80
2019-02-26T03:44:56.828Z,23.90
2019-02-26T03:47:26.606Z,17.33
2019-02-26T03:49:56.383Z,20.07
2019-02-26T03:52:26.157Z,24.30
2019-02-26T03:54:55.899Z,23.60
2019-02-26T03:57:25.689Z,24.13
2019-02-26T03:59:55.450Z,25.53
2019-02-26T04:02:25.205Z,23.40
2019-02-26T04:04:57.114Z,26.33
2019-02-26T04:07:35.964Z,24.83
2019-02-26T04:10:09.306Z,26.57
2019-02-26T04:12:45.064Z,28.93
2019-02-26T04:15:17.083Z,24.10
2019-02-26T04:17:47.222Z,23.47
2019-02-26T04:20:17.015Z,23.17
2019-02-26T04:22:50.018Z,24.70
2019-02-26T04:25:29.995Z,25.60
2019-02-26T04:28:08.687Z,26.60
2019-02-26T04:31:02.596Z,26.67
2019-02-26T04:33:58.911Z,29.43
2019-02-26T04:36:37.835Z,21.03
2019-02-26T04:39:22.116Z,17.87
2019-02-26T04:41:57.150Z,28.33
2019-02-26T04:44:50.080Z,28.80
2019-02-26T04:47:21.977Z,27.70
2019-02-26T04:49:51.041Z,25.03
2019-02-26T04:52:20.778Z,28.47
2019-02-26T04:54:50.590Z,29.83
2019-02-26T04:57:20.317Z,25.63
2019-02-26T04:59:50.089Z,18.30
2019-02-26T05:02:19.863Z,23.17
2019-02-26T05:04:49.605Z,26.67
2019-02-26T05:07:19.493Z,25.07
2019-02-26T05:09:51.143Z,27.47
2019-02-26T05:12:20.725Z,26.80
2019-02-26T05:14:50.498Z,29.13
2019-02-26T05:17:23.456Z,28.43
2019-02-26T05:19:51.940Z,17.57
2019-02-26T05:22:22.855Z,29.63
2019-02-26T05:24:53.209Z,29.47
2019-02-26T05:27:24.970Z,26.87
2019-02-26T05:29:54.887Z,22.93
2019-02-26T05:32:27.331Z,27.53
2019-02-26T05:34:56.362Z,25.93
2019-02-26T05:37:28.856Z,25.00
2019-02-26T05:39:57.646Z,24.37
2019-02-26T05:42:27.560Z,23.03
2019-02-26T05:44:59.840Z,29.00
2019-02-26T05:47:30.277Z,25.27
2019-02-26T05:50:02.567Z,19.93
2019-02-26T05:52:33.142Z,26.40
2019-02-26T05:55:02.944Z,21.47
2019-02-26T05:57:32.913Z,26.07
2019-02-26T06:00:02.771Z,27.33
2019-02-26T06:02:32.484Z,26.33
2019-02-26T06:05:02.227Z,28.00
2019-02-26T06:07:33.966Z,26.83
2019-02-26T06:10:03.447Z,24.23
2019-02-26T06:12:35.578Z,25.43
2019-02-26T06:15:07.918Z,26.67
2019-02-26T06:17:40.530Z,23.10
2019-02-26T06:20:23.556Z,25.87
2019-02-26T06:22:53.276Z,23.10
2019-02-26T06:25:24.441Z,26.07
2019-02-26T06:27:54.488Z,20.67
2019-02-26T06:30:24.299Z,25.93
2019-02-26T06:32:54.022Z,19.63
2019-02-26T06:35:23.790Z,20.50
2019-02-26T06:37:53.561Z,25.87
2019-02-26T06:40:23.299Z,24.20
2019-02-26T06:42:53.088Z,27.07
2019-02-26T06:45:22.818Z,25.53
2019-02-26T06:47:54.626Z,26.00
2019-02-26T06:50:24.033Z,25.70
2019-02-26T06:52:53.825Z,24.97
2019-02-26T06:55:23.554Z,19.90
2019-02-26T06:57:55.180Z,18.33
2019-02-26T07:00:27.015Z,25.30
2019-02-26T07:02:56.551Z,22.57
2019-02-26T07:05:26.283Z,25.27
2019-02-26T07:07:57.142Z,25.30
2019-02-26T07:10:29.566Z,24.67
2019-02-26T07:12:59.047Z,16.77
2019-02-26T07:15:29.453Z,26.37
2019-02-26T07:18:02.197Z,25.67
2019-02-26T07:20:34.061Z,22.57
2019-02-26T07:23:03.913Z,24.47
2019-02-26T07:25:36.294Z,23.53
2019-02-26T07:28:05.211Z,19.83
2019-02-26T07:30:37.422Z,22.50
2019-02-26T07:33:08.154Z,23.77
2019-02-26T07:35:39.707Z,24.30
2019-02-26T07:38:09.441Z,27.00
2019-02-26T07:40:40.452Z,24.20
2019-02-26T07:43:14.397Z,22.17
2019-02-26T07:45:41.942Z,22.13
2019-02-26T07:48:16.126Z,24.43
2019-02-26T07:50:45.729Z,24.77
2019-02-26T07:53:17.183Z,24.60
2019-02-26T07:55:49.161Z,25.97
2019-02-26T07:58:18.961Z,24.20
2019-02-26T08:00:49.850Z,24.20
2019-02-26T08:03:23.753Z,23.03
2019-02-26T08:05:51.999Z,17.33
2019-02-26T08:08:21.779Z,20.27
2019-02-26T08:10:53.137Z,22.20
2019-02-26T08:13:24.392Z,25.53
2019-02-26T08:15:55.153Z,25.23
2019-02-26T08:18:26.008Z,23.80
2019-02-26T08:20:57.951Z,20.77
2019-02-26T08:23:27.306Z,23.87
2019-02-26T08:25:59.583Z,21.37
2019-02-26T08:28:28.548Z,24.90
2019-02-26T08:30:58.319Z,22.40
2019-02-26T08:33:28.165Z,26.33
2019-02-26T08:35:57.966Z,22.47
2019-02-26T08:38:29.994Z,18.50
2019-02-26T08:40:59.334Z,20.33
2019-02-26T08:43:29.407Z,14.70
2019-02-26T08:45:59.176Z,23.97
2019-02-26T08:48:29.005Z,16.97
2019-02-26T08:51:03.063Z,19.83
2019-02-26T08:53:31.603Z,22.47
2019-02-26T08:56:03.968Z,19.33
2019-02-26T08:58:33.007Z,18.40
2019-02-26T09:01:02.777Z,21.20
2019-02-26T09:03:40.325Z,16.57
2019-02-26T09:06:12.806Z,18.57
2019-02-26T09:08:37.760Z,13.80
2019-02-26T09:11:10.810Z,26.47
2019-02-26T09:13:43.790Z,25.63
2019-02-26T09:16:12.752Z,25.03
2019-02-26T09:18:42.545Z,25.00
2019-02-26T09:21:13.505Z,18.50
2019-02-26T09:23:47.440Z,23.97
2019-02-26T09:26:15.296Z,24.20
2019-02-26T09:28:50.049Z,21.93
2019-02-26T09:31:19.926Z,11.73
2019-02-26T09:33:49.834Z,23.63
2019-02-26T09:36:23.130Z,26.00
2019-02-26T09:38:51.503Z,20.80
2019-02-26T09:41:21.583Z,22.13
2019-02-26T09:43:51.372Z,22.43
2019-02-26T09:46:21.140Z,22.13
2019-02-26T09:48:50.904Z,23.30
2019-02-26T09:51:20.666Z,25.23
2019-02-26T09:53:52.584Z,18.33
2019-02-26T09:56:23.373Z,21.23
2019-02-26T09:58:53.174Z,20.90
2019-02-26T10:01:24.664Z,12.63
2019-02-26T10:03:56.000Z,11.50
2019-02-26T10:06:25.924Z,11.37
2019-02-26T10:08:56.170Z,19.90
2019-02-26T10:11:28.058Z,20.90
2019-02-26T10:13:58.076Z,19.70
2019-02-26T10:16:28.703Z,23.77
2019-02-26T10:18:59.658Z,20.30
2019-02-26T10:21:29.425Z,25.03
2019-02-26T10:23:59.921Z,22.70
2019-02-26T10:26:31.335Z,22.00
2019-02-26T10:29:04.439Z,18.97
2019-02-26T10:31:33.632Z,18.47
2019-02-26T10:34:07.908Z,18.97
2019-02-26T10:36:39.016Z,22.60
2019-02-26T10:39:08.281Z,19.20
2019-02-26T10:41:39.886Z,18.97
2019-02-26T10:44:09.772Z,20.50
2019-02-26T10:46:41.952Z,25.50
2019-02-26T10:49:12.451Z,18.33
2019-02-26T10:51:43.059Z,27.57
2019-02-26T10:54:17.662Z,20.23
2019-02-26T10:56:44.942Z,22.73
2019-02-26T10:59:15.892Z,30.30
2019-02-26T11:01:47.557Z,23.13
2019-02-26T11:04:18.134Z,26.27
2019-02-26T11:06:48.015Z,27.87
2019-02-26T11:09:21.269Z,29.43
2019-02-26T11:11:49.291Z,25.80
2019-02-26T11:14:19.513Z,17.20
2019-02-26T11:16:49.331Z,20.47
2019-02-26T11:19:19.131Z,19.80
2019-02-26T11:21:50.675Z,26.63
2019-02-26T11:24:20.387Z,19.13
2019-02-26T11:26:50.155Z,21.90
2019-02-26T11:29:19.908Z,19.67
2019-02-26T11:31:49.828Z,21.33
2019-02-26T11:34:19.582Z,18.33
2019-02-26T11:36:49.407Z,24.00
2019-02-26T11:39:19.137Z,24.87
2019-02-26T11:41:53.110Z,21.97
2019-02-26T11:44:22.648Z,20.27
2019-02-26T11:46:53.844Z,19.17
2019-02-26T11:49:23.333Z,16.73
2019-02-26T11:51:53.124Z,15.13
2019-02-26T11:54:22.889Z,19.13
2019-02-26T11:56:52.705Z,14.73
2019-02-26T11:59:22.479Z,17.07
2019-02-26T12:01:54.029Z,21.20
2019-02-26T12:04:23.835Z,22.33
2019-02-26T12:06:55.732Z,18.23
2019-02-26T12:09:25.080Z,22.97
2019-02-26T12:11:56.025Z,22.57
2019-02-26T12:14:26.345Z,19.60
2019-02-26T12:16:56.140Z,13.90
2019-02-26T12:19:28.198Z,20.50
2019-02-26T12:22:00.788Z,20.77
2019-02-26T12:24:31.284Z,21.07
2019-02-26T12:27:00.566Z,19.97
2019-02-26T12:29:30.335Z,23.03
2019-02-26T12:32:01.301Z,29.27
2019-02-26T12:34:31.609Z,31.23
2019-02-26T12:37:02.651Z,20.33
2019-02-26T12:39:32.930Z,24.97
2019-02-26T12:42:02.815Z,16.63
2019-02-26T12:44:34.774Z,15.47
2019-02-26T12:47:04.154Z,19.50
2019-02-26T12:49:36.502Z,9.93
2019-02-26T12:52:05.383Z,18.20
2019-02-26T12:54:37.769Z,17.63
2019-02-26T12:57:06.739Z,13.33
2019-02-26T12:59:36.522Z,11.50
2019-02-26T13:02:09.328Z,18.40
2019-02-26T13:04:40.879Z,13.57
2019-02-26T13:07:09.485Z,14.03
2019-02-26T13:09:46.868Z,16.13
2019-02-26T13:12:12.461Z,11.90
2019-02-26T13:14:42.541Z,13.63
2019-02-26T13:17:13.974Z,9.50
2019-02-26T13:19:43.814Z,14.67
2019-02-26T13:22:17.450Z,10.60
2019-02-26T13:24:45.075Z,13.77
2019-02-26T13:27:15.080Z,13.97
2019-02-26T13:29:53.586Z,14.20
2019-02-26T13:32:17.549Z,14.57
2019-02-26T13:34:47.855Z,15.43
2019-02-26T13:37:17.650Z,13.93
2019-02-26T13:39:47.421Z,9.60
2019-02-26T13:42:19.297Z,10.97
2019-02-26T13:44:48.737Z,11.13
2019-02-26T13:47:18.582Z,11.80
2019-02-26T13:49:48.346Z,10.33
2019-02-26T13:52:18.148Z,6.57
2019-02-26T13:54:47.909Z,10.20
2019-02-26T13:57:17.678Z,13.33
2019-02-26T13:59:47.668Z,11.57
2019-02-26T14:02:17.399Z,12.00
2019-02-26T14:04:47.643Z,13.60
2019-02-26T14:07:17.380Z,18.17
2019-02-26T14:09:47.182Z,11.63
2019-02-26T14:12:17.105Z,6.17
2019-02-26T14:14:46.932Z,12.63
2019-02-26T14:17:16.642Z,12.73
2019-02-26T14:19:46.413Z,53.53
2019-02-26T14:22:16.173Z,12.47
2019-02-26T14:24:45.981Z,15.43
2019-02-26T14:27:15.758Z,12.93
2019-02-26T14:29:45.553Z,13.17
2019-02-26T14:32:15.318Z,13.60
2019-02-26T14:34:45.276Z,9.87
2019-02-26T14:37:15.044Z,12.87
2019-02-26T14:39:44.780Z,12.50
2019-02-26T14:42:14.572Z,13.03
2019-02-26T14:44:44.310Z,13.90
2019-02-26T14:47:14.088Z,13.97
2019-02-26T14:49:43.868Z,15.80
2019-02-26T14:52:13.668Z,13.97
2019-02-26T14:54:43.447Z,14.77
2019-02-26T14:57:13.487Z,15.93
2019-02-26T14:59:43.250Z,14.43
2019-02-26T15:02:13.059Z,18.17
2019-02-26T15:04:42.845Z,15.27
2019-02-26T15:07:12.583Z,15.03
2019-02-26T15:09:42.371Z,14.93
2019-02-26T15:12:12.108Z,14.77
2019-02-26T15:14:41.855Z,16.07
2019-02-26T15:17:11.833Z,19.17
2019-02-26T15:19:50.276Z,16.07
2019-02-26T15:22:14.835Z,18.50
2019-02-26T15:24:46.236Z,16.27
2019-02-26T15:27:15.969Z,15.93
2019-02-26T15:29:45.739Z,19.10
2019-02-26T15:32:15.502Z,21.73
2019-02-26T15:34:45.240Z,22.20
2019-02-26T15:37:15.043Z,21.43
2019-02-26T15:39:44.776Z,18.50
2019-02-26T15:42:14.720Z,19.03
2019-02-26T15:44:44.487Z,20.70
2019-02-26T15:47:14.246Z,18.53
2019-02-26T15:49:44.039Z,16.27
2019-02-26T15:52:13.777Z,19.30
2019-02-26T15:54:43.538Z,20.53
2019-02-26T15:57:13.301Z,23.33
2019-02-26T15:59:43.031Z,26.10
2019-02-26T16:02:14.376Z,32.80
2019-02-26T16:04:44.277Z,30.97
2019-02-26T16:07:14.073Z,32.93
2019-02-26T16:09:43.851Z,28.63
2019-02-26T16:12:13.620Z,39.03
2019-02-26T16:14:43.388Z,36.70
2019-02-26T16:17:13.113Z,30.37
2019-02-26T16:19:43.691Z,29.67
2019-02-26T16:22:13.626Z,20.30
2019-02-26T16:24:43.411Z,21.43
2019-02-26T16:27:13.145Z,22.70
2019-02-26T16:29:42.931Z,26.37
2019-02-26T16:32:12.668Z,24.60
2019-02-26T16:34:42.435Z,22.57
2019-02-26T16:37:12.356Z,23.57
2019-02-26T16:39:42.273Z,28.00
2019-02-26T16:42:12.318Z,27.33
2019-02-26T16:44:42.107Z,28.77
2019-02-26T16:47:12.606Z,19.00
2019-02-26T16:49:43.377Z,22.93
2019-02-26T16:52:13.176Z,24.20
2019-02-26T16:54:42.951Z,25.50
2019-02-26T16:57:12.714Z,22.17
2019-02-26T16:59:42.480Z,20.33
2019-02-26T17:02:12.209Z,27.57
2019-02-26T17:04:42.014Z,35.43
2019-02-26T17:07:11.739Z,41.90
2019-02-26T17:09:41.799Z,42.40
2019-02-26T17:12:11.574Z,35.37
2019-02-26T17:14:41.381Z,31.60
2019-02-26T17:17:11.147Z,29.47
2019-02-26T17:19:40.916Z,28.50
2019-02-26T17:22:10.679Z,26.20
2019-02-26T17:24:40.416Z,21.37
2019-02-26T17:27:10.392Z,25.50
2019-02-26T17:29:40.130Z,27.77
2019-02-26T17:32:09.899Z,27.77
2019-02-26T17:34:39.684Z,23.37
2019-02-26T17:37:09.465Z,31.93
2019-02-26T17:39:39.705Z,29.40
2019-02-26T17:42:09.497Z,19.83
2019-02-26T17:44:39.263Z,25.00
2019-02-26T17:47:10.509Z,20.80
2019-02-26T17:49:40.290Z,23.73
2019-02-26T17:52:10.058Z,20.57
2019-02-26T17:54:39.830Z,22.50
2019-02-26T17:57:09.576Z,26.90
2019-02-26T18:03:39.273Z,27.13
2019-02-26T19:08:39.157Z,37.90
2019-02-26T19:11:07.182Z,39.17
2019-02-26T19:13:37.397Z,37.07
2019-02-26T19:16:07.507Z,33.20
2019-02-26T19:18:38.552Z,32.40
2019-02-26T19:21:08.965Z,29.30
2019-02-26T19:23:39.210Z,28.57
2019-02-26T19:26:13.562Z,29.17
2019-02-26T19:28:41.535Z,29.83
2019-02-26T19:31:11.919Z,34.20
2019-02-26T19:33:42.279Z,33.67
2019-02-26T19:36:13.626Z,30.13
2019-02-26T19:38:44.464Z,29.67
2019-02-26T19:41:17.073Z,25.50
2019-02-26T19:43:53.286Z,28.67
2019-02-26T19:46:52.256Z,25.53
2019-02-26T19:49:30.487Z,28.87
2019-02-26T19:52:11.869Z,27.63
2019-02-26T19:55:30.724Z,31.30
2019-02-26T19:58:06.799Z,26.63
2019-02-26T20:00:40.064Z,25.80
2019-02-26T20:03:16.447Z,28.03
2019-02-26T20:05:48.742Z,27.60
2019-02-26T20:11:22.364Z,25.77
2019-02-26T20:14:11.363Z,34.37
2019-02-26T20:16:44.262Z,30.03
2019-02-26T20:19:31.795Z,28.67
2019-02-26T20:22:04.863Z,22.83
2019-02-26T20:25:16.586Z,25.93
2019-02-26T20:27:13.084Z,26.83
2019-02-26T20:29:57.352Z,25.70
2019-02-26T20:36:28.386Z,26.33
2019-02-26T20:39:13.726Z,25.07
2019-02-26T20:41:56.373Z,26.17
2019-02-26T20:44:45.258Z,24.43
2019-02-26T20:47:31.297Z,23.77
2019-02-26T20:50:10.052Z,26.40
2019-02-26T20:56:31.586Z,26.37
2019-02-26T21:05:19.987Z,25.17
2019-02-26T21:07:50.860Z,26.80
2019-02-26T21:10:29.416Z,24.53
2019-02-26T21:13:26.945Z,27.73
2019-02-26T21:16:14.925Z,25.20
2019-02-26T21:18:47.640Z,25.57
2019-02-26T21:21:48.918Z,21.67
2019-02-26T21:24:27.376Z,24.23
2019-02-26T21:27:26.634Z,23.67
2019-02-26T21:30:00.912Z,20.77
2019-02-26T21:33:15.799Z,20.87
2019-02-26T21:35:58.661Z,22.47
2019-02-26T21:38:53.771Z,20.60
2019-02-26T21:51:02.331Z,23.23
2019-02-26T22:35:04.290Z,30.50
2019-02-26T22:37:34.041Z,26.83
2019-02-26T22:40:03.905Z,36.90
2019-02-26T22:42:34.638Z,34.67
2019-02-26T22:45:05.407Z,54.97
2019-02-26T22:47:40.235Z,55.17
2019-02-26T22:50:09.169Z,60.70
2019-02-26T22:52:38.959Z,61.93
2019-02-26T22:55:10.615Z,72.33
2019-02-26T22:57:40.413Z,76.17
2019-02-26T23:00:20.824Z,48.40
2019-02-26T23:02:50.621Z,42.53
2019-02-26T23:05:20.358Z,43.73
2019-02-26T23:07:50.170Z,33.47
2019-02-26T23:10:19.898Z,36.93
2019-02-26T23:12:49.690Z,34.00
2019-02-26T23:15:19.431Z,29.77
2019-02-26T23:17:49.308Z,24.90
2019-02-26T23:20:19.081Z,26.60
2019-02-26T23:22:49.485Z,24.47
2019-02-26T23:25:19.253Z,22.70
2019-02-26T23:27:49.364Z,26.40
2019-02-26T23:30:19.305Z,25.17
2019-02-26T23:32:49.045Z,26.20
2019-02-26T23:35:18.898Z,24.93
2019-02-26T23:37:48.630Z,25.70
2019-02-26T23:40:18.402Z,27.07
2019-02-26T23:42:48.191Z,25.73
2019-02-26T23:45:18.000Z,27.97
2019-02-26T23:47:47.767Z,29.60
2019-02-26T23:50:17.576Z,31.00
2019-02-26T23:52:47.348Z,29.50
2019-02-26T23:55:17.120Z,29.33
2019-02-26T23:57:46.916Z,29.97
